Belle Mead, New Jersey
Current Conditions -  °F | °C
As of 12:53 AM on Sunday 26 Oct 2014 (Local Time) from KSMQ Reporting Station
Overcast Overcast  
Wind Chill: 61°   Ceiling: 5000
Heat Index: 61°   Visibility: 10mi
Dew Point: 45°   Wind: 8mph
Humidity: 56%   Direction: 310°NW
Pressure: 29.58"   Gusts: NA
Location:  40.47°N, 74.66°W
Report Text: KSMQ 260453Z AUTO 31007KT 10SM BKN050 OVC060 16/07 A2958 RMK AO2 SLP016 T01610072 402060017
Loading
Personal Weather Stations






























Interactive Weather Map
Tropical Storm Tracking
New forecast layout! Learn more

10-Day Weather Forecast

Advertisements
Track Severe Weather on mobile